Time;durP1;ratioP1;P1;durP2;ratioP2;P2;SDS_P1;SDS_P2;PMS_P1;PMS_P2;Temp;Humidity;BMP_temperature;BMP_pressure;BME280_temperature;BME280_humidity;BME280_pressure;Samples;Min_cycle;Max_cycle;Signal;HPM_P1;HPM_P2
2021/08/31 00:01:49;;;;;;;8.43;6.63;;;17.90;99.90;;;;;;5073658;28;20385;-84
2021/08/31 00:04:15;;;;;;;9.52;7.35;;;17.90;99.90;;;;;;5072524;28;20516;-84
2021/08/31 00:06:41;;;;;;;9.93;7.60;;;17.90;99.90;;;;;;5072875;28;20025;-84
2021/08/31 00:09:06;;;;;;;8.63;7.68;;;17.90;99.90;;;;;;5073111;28;20021;-84
2021/08/31 00:11:32;;;;;;;9.30;7.03;;;17.80;99.90;;;;;;5072838;28;20036;-84
2021/08/31 00:13:58;;;;;;;11.70;8.00;;;17.80;99.90;;;;;;5072978;28;20190;-84
2021/08/31 00:16:24;;;;;;;9.50;6.90;;;17.80;99.90;;;;;;5072751;28;20480;-84
2021/08/31 00:18:49;;;;;;;11.85;7.07;;;17.80;99.90;;;;;;5072642;28;20416;-84
2021/08/31 00:21:15;;;;;;;9.00;7.15;;;17.80;99.90;;;;;;5071034;28;20024;-84
2021/08/31 00:23:40;;;;;;;10.93;7.28;;;17.80;99.90;;;;;;5072597;28;20025;-84
2021/08/31 00:26:06;;;;;;;8.48;7.43;;;17.80;99.90;;;;;;5071205;28;20442;-84
2021/08/31 00:28:32;;;;;;;10.02;7.15;;;17.80;99.90;;;;;;5072626;28;20025;-84
2021/08/31 00:30:58;;;;;;;10.75;7.30;;;17.80;99.90;;;;;;5071188;28;20055;-84
2021/08/31 00:33:23;;;;;;;13.48;7.72;;;17.80;99.90;;;;;;5072261;28;20032;-84
2021/08/31 00:35:49;;;;;;;8.63;7.40;;;17.80;99.90;;;;;;5071150;28;20024;-84
2021/08/31 00:38:14;;;;;;;10.38;7.05;;;17.80;99.90;;;;;;5072229;28;20037;-84
2021/08/31 00:40:40;;;;;;;11.65;7.55;;;17.70;99.90;;;;;;5072309;28;20044;-84
2021/08/31 00:43:06;;;;;;;11.45;7.45;;;17.70;99.90;;;;;;5072250;28;20035;-84
2021/08/31 00:45:34;;;;;;;10.85;7.53;;;17.70;99.90;;;;;;5071025;28;20107;-84
2021/08/31 00:48:00;;;;;;;8.82;7.55;;;17.60;99.90;;;;;;5070854;28;20052;-84
2021/08/31 00:50:26;;;;;;;8.73;7.47;;;17.60;99.90;;;;;;5071093;28;20043;-84
2021/08/31 00:52:52;;;;;;;9.40;7.45;;;17.60;99.90;;;;;;5072120;28;20050;-84
2021/08/31 00:55:18;;;;;;;8.80;7.75;;;17.60;99.90;;;;;;5072208;28;20037;-84
2021/08/31 00:57:44;;;;;;;13.35;7.85;;;17.50;99.90;;;;;;5070717;28;20381;-84
2021/08/31 01:00:12;;;;;;;11.75;8.05;;;17.60;99.90;;;;;;5071960;28;20032;-83
2021/08/31 01:02:38;;;;;;;10.57;7.60;;;17.50;99.90;;;;;;5071095;28;20053;-83
2021/08/31 01:05:05;;;;;;;9.75;7.72;;;17.50;99.90;;;;;;5070763;28;20055;-84
2021/08/31 01:07:31;;;;;;;10.18;7.75;;;17.50;99.90;;;;;;5070478;28;20055;-83
2021/08/31 01:10:00;;;;;;;10.90;7.88;;;17.50;99.90;;;;;;5070252;28;20021;-84
2021/08/31 01:12:27;;;;;;;11.45;7.80;;;17.40;99.90;;;;;;5070416;28;20036;-84
2021/08/31 01:14:53;;;;;;;8.75;7.47;;;17.50;99.90;;;;;;5071878;28;20417;-84
2021/08/31 01:17:27;;;;;;;10.30;8.13;;;17.40;99.90;;;;;;5070114;28;20140;-84
2021/08/31 01:19:53;;;;;;;12.52;8.02;;;17.40;99.90;;;;;;5071431;28;20496;-84
2021/08/31 01:22:19;;;;;;;9.70;8.27;;;17.40;99.90;;;;;;5072031;28;20029;-84
2021/08/31 01:24:46;;;;;;;11.05;8.73;;;17.40;99.90;;;;;;5071926;28;20060;-84
2021/08/31 01:27:12;;;;;;;9.95;7.75;;;17.30;99.90;;;;;;5071732;28;20025;-84
2021/08/31 01:29:39;;;;;;;11.52;8.10;;;17.40;99.90;;;;;;5071793;28;20082;-84
2021/08/31 01:32:06;;;;;;;10.40;8.07;;;17.30;99.90;;;;;;5071603;28;20100;-84
2021/08/31 01:34:32;;;;;;;10.95;8.25;;;17.30;99.90;;;;;;5072030;28;20154;-83
2021/08/31 01:36:58;;;;;;;9.25;8.32;;;17.30;99.90;;;;;;5087575;28;20095;-84
2021/08/31 01:39:25;;;;;;;13.70;8.23;;;17.30;99.90;;;;;;5090105;28;20028;-83
2021/08/31 01:41:50;;;;;;;9.73;8.73;;;17.30;99.90;;;;;;5091630;28;20103;-84
2021/08/31 01:44:16;;;;;;;12.43;8.20;;;17.20;99.90;;;;;;5083189;28;20516;-84
2021/08/31 01:46:42;;;;;;;12.02;8.50;;;17.20;99.90;;;;;;5085616;28;20496;-84
2021/08/31 01:49:08;;;;;;;10.25;8.85;;;17.20;99.90;;;;;;5091503;28;20020;-84
2021/08/31 01:51:35;;;;;;;10.55;8.52;;;17.20;99.90;;;;;;5091603;28;20024;-84
2021/08/31 01:54:00;;;;;;;11.18;8.60;;;17.20;99.90;;;;;;5075672;28;20034;-83
2021/08/31 01:56:26;;;;;;;11.68;8.43;;;17.20;99.90;;;;;;5091954;28;20133;-83
2021/08/31 01:58:52;;;;;;;12.05;9.40;;;17.20;99.90;;;;;;5091181;28;20044;-84
2021/08/31 02:01:17;;;;;;;10.40;8.68;;;17.20;99.90;;;;;;5091477;28;20016;-84
2021/08/31 02:03:43;;;;;;;13.48;9.35;;;17.10;99.90;;;;;;5091016;28;20447;-83
2021/08/31 02:06:09;;;;;;;13.68;9.35;;;17.10;99.90;;;;;;5084224;28;20039;-84
2021/08/31 02:08:35;;;;;;;10.80;9.32;;;17.00;99.90;;;;;;5070648;28;20028;-84
2021/08/31 02:11:01;;;;;;;10.30;8.88;;;17.10;99.90;;;;;;5070582;28;20021;-84
2021/08/31 02:13:26;;;;;;;12.73;9.77;;;17.10;99.90;;;;;;5070988;28;20086;-84
2021/08/31 02:15:52;;;;;;;10.05;9.05;;;17.00;99.90;;;;;;5070900;28;20526;-84
2021/08/31 02:18:17;;;;;;;13.10;9.88;;;17.00;99.90;;;;;;5070316;28;20592;-84
2021/08/31 02:20:43;;;;;;;14.00;10.00;;;16.90;99.90;;;;;;5070500;28;20055;-84
2021/08/31 02:23:09;;;;;;;11.90;10.05;;;16.90;99.90;;;;;;5070348;28;20024;-84
2021/08/31 02:25:35;;;;;;;11.75;9.73;;;16.80;99.90;;;;;;5070366;28;20021;-84
2021/08/31 02:28:01;;;;;;;12.40;9.63;;;16.80;99.90;;;;;;5070096;28;20020;-84
2021/08/31 02:30:27;;;;;;;13.35;9.50;;;16.80;99.90;;;;;;5068955;28;20073;-83
2021/08/31 02:32:56;;;;;;;15.20;10.63;;;16.80;99.90;;;;;;5070206;28;20049;-84
2021/08/31 02:35:22;;;;;;;15.93;10.23;;;16.80;99.90;;;;;;5070336;28;20330;-84
2021/08/31 02:37:47;;;;;;;12.68;10.45;;;16.80;99.90;;;;;;5089211;28;20016;-85
2021/08/31 02:40:13;;;;;;;12.93;10.55;;;16.80;99.90;;;;;;5104380;28;20119;-84
2021/08/31 02:42:39;;;;;;;11.10;9.70;;;16.80;99.90;;;;;;5096465;28;20035;-84
2021/08/31 02:45:05;;;;;;;12.38;10.02;;;16.80;99.90;;;;;;5089566;28;20104;-84
2021/08/31 02:47:31;;;;;;;13.13;10.82;;;16.80;99.90;;;;;;5102390;28;20044;-84
2021/08/31 02:49:56;;;;;;;12.48;10.30;;;16.80;99.90;;;;;;5090870;28;20035;-84
2021/08/31 02:52:22;;;;;;;13.23;11.15;;;16.80;99.90;;;;;;5080561;28;20036;-83
2021/08/31 02:54:48;;;;;;;14.57;11.02;;;16.80;99.90;;;;;;5079835;28;20415;-84
2021/08/31 02:57:13;;;;;;;13.18;10.90;;;16.70;99.90;;;;;;5071284;28;20035;-84
2021/08/31 02:59:39;;;;;;;12.55;11.00;;;16.70;99.90;;;;;;5068392;28;20036;-83
2021/08/31 03:02:05;;;;;;;13.10;11.57;;;16.70;99.90;;;;;;5069535;28;20031;-83
2021/08/31 03:04:39;;;;;;;14.48;10.82;;;16.70;99.90;;;;;;5069861;28;20483;-84
2021/08/31 03:07:06;;;;;;;13.55;10.88;;;16.70;99.90;;;;;;5068933;28;20389;-84
2021/08/31 03:09:33;;;;;;;14.23;11.82;;;16.70;99.90;;;;;;5090425;28;20431;-84
2021/08/31 03:11:58;;;;;;;13.88;11.73;;;16.70;99.90;;;;;;5077007;28;20017;-84
2021/08/31 03:14:24;;;;;;;18.20;11.90;;;16.70;99.90;;;;;;5073406;28;20083;-84
2021/08/31 03:16:50;;;;;;;15.30;12.63;;;16.60;99.90;;;;;;5083538;28;20645;-84
2021/08/31 03:19:26;;;;;;;13.38;12.05;;;16.60;99.90;;;;;;5070423;28;20111;-84
2021/08/31 03:21:57;;;;;;;16.05;12.05;;;16.60;99.90;;;;;;5070003;28;20231;-84
2021/08/31 03:24:24;;;;;;;17.20;11.93;;;16.60;99.90;;;;;;5074510;28;20097;-84
2021/08/31 03:26:51;;;;;;;17.75;13.02;;;16.60;99.90;;;;;;5076436;28;20120;-83
2021/08/31 03:29:16;;;;;;;15.82;13.10;;;16.60;99.90;;;;;;5069537;28;20396;-84
2021/08/31 03:31:42;;;;;;;16.48;13.52;;;16.70;99.90;;;;;;5069441;28;20016;-84
2021/08/31 03:34:08;;;;;;;20.15;14.82;;;16.70;99.90;;;;;;5069232;28;20067;-84
2021/08/31 03:36:34;;;;;;;17.08;14.48;;;16.60;99.90;;;;;;5067971;28;20032;-84
2021/08/31 03:39:00;;;;;;;19.13;14.73;;;16.50;99.90;;;;;;5069777;28;20029;-84
2021/08/31 03:41:26;;;;;;;19.48;14.43;;;16.50;99.90;;;;;;5071952;28;20110;-84
2021/08/31 03:43:51;;;;;;;20.08;14.93;;;16.60;99.90;;;;;;5075988;28;20488;-83
2021/08/31 03:46:17;;;;;;;17.75;14.75;;;16.60;99.90;;;;;;5082193;28;20024;-83
2021/08/31 03:48:43;;;;;;;18.70;15.85;;;16.60;99.90;;;;;;5080972;28;20031;-84
2021/08/31 03:51:09;;;;;;;20.20;16.88;;;16.60;99.90;;;;;;5088536;28;20024;-84
2021/08/31 03:53:35;;;;;;;21.55;16.45;;;16.60;99.90;;;;;;5090007;28;20025;-84
2021/08/31 03:56:01;;;;;;;20.35;16.73;;;16.60;99.90;;;;;;5075035;28;20033;-84
2021/08/31 03:58:26;;;;;;;21.27;18.20;;;16.50;99.90;;;;;;5089834;28;20020;-84
2021/08/31 04:00:52;;;;;;;23.05;17.10;;;16.60;99.90;;;;;;5088053;28;20044;-83
2021/08/31 04:03:18;;;;;;;21.77;18.30;;;16.60;99.90;;;;;;5089277;28;20020;-83
2021/08/31 04:05:45;;;;;;;21.38;18.48;;;16.60;99.90;;;;;;5089455;28;20036;-84
2021/08/31 04:08:10;;;;;;;24.63;19.73;;;16.50;99.90;;;;;;5078668;28;20036;-84
2021/08/31 04:10:36;;;;;;;24.13;19.65;;;16.50;99.90;;;;;;5069712;28;20029;-84
2021/08/31 04:13:02;;;;;;;29.98;20.27;;;16.50;99.90;;;;;;5069199;28;20531;-83
2021/08/31 04:15:28;;;;;;;26.40;20.02;;;16.50;99.90;;;;;;5069335;28;20068;-84
2021/08/31 04:17:53;;;;;;;26.35;20.30;;;16.50;99.90;;;;;;5067663;28;20585;-84
2021/08/31 04:20:19;;;;;;;27.40;20.98;;;16.50;99.90;;;;;;5069988;28;20029;-84
2021/08/31 04:22:45;;;;;;;24.77;20.85;;;16.50;99.90;;;;;;5069539;28;20051;-84
2021/08/31 04:25:11;;;;;;;30.48;22.50;;;16.50;99.90;;;;;;5068881;28;20087;-84
2021/08/31 04:27:37;;;;;;;27.20;21.98;;;16.40;99.90;;;;;;5067344;28;20401;-83
2021/08/31 04:30:04;;;;;;;26.92;21.90;;;16.40;99.90;;;;;;5068915;28;20028;-84
2021/08/31 04:32:29;;;;;;;31.90;22.05;;;16.40;99.90;;;;;;5069037;28;20016;-83
2021/08/31 04:34:57;;;;;;;26.83;21.38;;;16.50;99.90;;;;;;5069001;28;20099;-84
2021/08/31 04:37:23;;;;;;;30.10;21.92;;;16.60;99.90;;;;;;5069408;28;20028;-84
2021/08/31 04:39:49;;;;;;;29.63;22.35;;;16.60;99.90;;;;;;5089429;28;20032;-84
2021/08/31 04:42:15;;;;;;;26.63;22.50;;;16.60;99.90;;;;;;5091404;28;20016;-84
2021/08/31 04:44:40;;;;;;;25.60;21.30;;;16.50;99.90;;;;;;5082815;28;20086;-84
2021/08/31 04:47:06;;;;;;;28.13;23.90;;;16.50;99.90;;;;;;5080871;28;20461;-84
2021/08/31 04:49:32;;;;;;;28.73;22.80;;;16.50;99.90;;;;;;5078201;28;20054;-84
2021/08/31 04:51:57;;;;;;;35.72;24.85;;;16.60;99.90;;;;;;5092887;28;20050;-84
2021/08/31 04:54:23;;;;;;;28.73;23.38;;;16.50;99.90;;;;;;5093049;28;20107;-83
2021/08/31 04:56:49;;;;;;;30.83;23.95;;;16.60;99.90;;;;;;5086762;28;20587;-84
2021/08/31 04:59:14;;;;;;;29.70;23.45;;;16.50;99.90;;;;;;5072116;28;20031;-84
2021/08/31 05:01:40;;;;;;;31.95;24.45;;;16.50;99.90;;;;;;5072114;28;20028;-84
2021/08/31 05:04:06;;;;;;;33.72;24.23;;;16.40;99.90;;;;;;5080501;28;20020;-84
2021/08/31 05:06:32;;;;;;;32.83;23.08;;;16.40;99.90;;;;;;5092460;28;20025;-84
2021/08/31 05:08:57;;;;;;;29.75;24.42;;;16.50;99.90;;;;;;5083486;28;20031;-84
2021/08/31 05:11:23;;;;;;;31.60;24.38;;;16.50;99.90;;;;;;5072139;28;20028;-84
2021/08/31 05:13:49;;;;;;;31.48;23.67;;;16.40;99.90;;;;;;5075398;28;20112;-84
2021/08/31 05:16:18;;;;;;;30.63;24.23;;;16.40;99.90;;;;;;5077862;28;20029;-84
2021/08/31 05:18:44;;;;;;;34.55;25.45;;;16.40;99.90;;;;;;5077247;28;20053;-84
2021/08/31 05:21:10;;;;;;;33.67;24.75;;;16.40;99.90;;;;;;5091949;28;20020;-84
2021/08/31 05:23:36;;;;;;;32.00;23.77;;;16.30;99.90;;;;;;5091603;28;20028;-83
2021/08/31 05:26:02;;;;;;;36.45;25.88;;;16.40;99.90;;;;;;5082936;28;20025;-84
2021/08/31 05:28:28;;;;;;;33.90;25.42;;;16.40;99.90;;;;;;5081458;28;20021;-83
2021/08/31 05:30:54;;;;;;;33.47;25.27;;;16.40;99.90;;;;;;5076689;28;20393;-83
2021/08/31 05:33:19;;;;;;;30.95;25.48;;;16.40;99.90;;;;;;5083914;28;20056;-83
2021/08/31 05:35:45;;;;;;;33.20;25.30;;;16.50;99.90;;;;;;5081365;28;20029;-83
2021/08/31 05:38:11;;;;;;;34.50;25.45;;;16.50;99.90;;;;;;5091898;28;20025;-83
2021/08/31 05:40:37;;;;;;;34.83;26.63;;;16.50;99.90;;;;;;5078890;28;20111;-84
2021/08/31 05:43:03;;;;;;;38.75;27.30;;;16.50;99.90;;;;;;5082958;28;20027;-84
2021/08/31 05:45:28;;;;;;;36.63;26.35;;;16.50;99.90;;;;;;5086353;28;20043;-84
2021/08/31 05:47:54;;;;;;;35.70;27.17;;;16.50;99.90;;;;;;5080675;28;20384;-84
2021/08/31 05:50:20;;;;;;;39.90;27.63;;;16.50;99.90;;;;;;5074095;28;20024;-84
2021/08/31 05:52:46;;;;;;;43.20;27.88;;;16.50;99.90;;;;;;5075302;28;20095;-84
2021/08/31 05:55:12;;;;;;;36.58;28.48;;;16.50;99.90;;;;;;5074492;28;20032;-84
2021/08/31 05:57:37;;;;;;;42.58;28.92;;;16.60;99.90;;;;;;5074786;28;20051;-85
2021/08/31 06:00:05;;;;;;;35.80;29.15;;;16.60;99.90;;;;;;5074014;28;20457;-84
2021/08/31 06:02:30;;;;;;;37.97;28.73;;;16.60;99.90;;;;;;5074819;28;20027;-89
2021/08/31 06:04:56;;;;;;;38.40;28.58;;;16.60;99.90;;;;;;5075788;28;20056;-84
2021/08/31 06:07:24;;;;;;;38.30;28.65;;;16.70;99.90;;;;;;5073729;28;20017;-84
2021/08/31 06:09:49;;;;;;;35.75;28.30;;;16.70;99.90;;;;;;5075727;28;20017;-84
2021/08/31 06:12:15;;;;;;;38.15;27.73;;;16.70;99.90;;;;;;5076622;28;20035;-84
2021/08/31 06:14:42;;;;;;;39.10;28.92;;;16.70;99.90;;;;;;5075438;28;20020;-84
2021/08/31 06:17:09;;;;;;;39.15;29.38;;;16.70;99.90;;;;;;5074870;28;20413;-84
2021/08/31 06:19:35;;;;;;;39.22;29.08;;;16.80;99.90;;;;;;5089709;28;20115;-84
2021/08/31 06:22:01;;;;;;;38.45;28.35;;;16.80;99.90;;;;;;5089310;28;20031;-84
2021/08/31 06:24:27;;;;;;;39.20;28.92;;;16.90;99.90;;;;;;5070988;28;20121;-77
2021/08/31 06:26:53;;;;;;;37.10;28.52;;;16.90;99.90;;;;;;5067743;28;20016;-77
2021/08/31 06:29:18;;;;;;;38.03;28.80;;;16.90;99.90;;;;;;5067621;28;20036;-77
2021/08/31 06:31:44;;;;;;;40.25;29.17;;;17.00;99.90;;;;;;5069064;28;20416;-77
2021/08/31 06:34:10;;;;;;;37.15;27.95;;;17.00;99.90;;;;;;5069640;28;20090;-77
2021/08/31 06:36:36;;;;;;;37.67;27.83;;;17.00;99.90;;;;;;5069978;28;20113;-77
2021/08/31 06:39:02;;;;;;;34.92;26.90;;;17.10;99.90;;;;;;5068514;28;20032;-77
2021/08/31 06:41:27;;;;;;;37.03;26.88;;;17.10;99.90;;;;;;5069567;28;20540;-76
2021/08/31 06:43:53;;;;;;;40.08;26.95;;;17.10;99.90;;;;;;5069464;28;20108;-77
2021/08/31 06:46:19;;;;;;;32.55;26.58;;;17.20;99.90;;;;;;5069663;28;20404;-76
2021/08/31 06:48:45;;;;;;;33.90;25.75;;;17.20;99.90;;;;;;5069508;28;20086;-77
2021/08/31 06:51:13;;;;;;;34.35;26.20;;;17.20;99.90;;;;;;5069175;28;20506;-78
2021/08/31 06:53:41;;;;;;;40.90;26.23;;;17.20;99.90;;;;;;5069842;28;20112;-77
2021/08/31 06:56:07;;;;;;;37.95;25.42;;;17.30;99.90;;;;;;5069063;28;20082;-77
2021/08/31 06:58:33;;;;;;;38.20;24.35;;;17.40;99.90;;;;;;5068943;28;20427;-78
2021/08/31 07:00:58;;;;;;;35.35;24.92;;;17.40;99.90;;;;;;5070619;28;20480;-77
2021/08/31 07:03:24;;;;;;;30.00;23.83;;;17.50;99.90;;;;;;5086095;28;20488;-77
2021/08/31 07:05:50;;;;;;;31.65;22.95;;;17.50;99.90;;;;;;5076329;28;20070;-78
2021/08/31 07:08:16;;;;;;;32.33;22.05;;;17.50;99.90;;;;;;5069005;28;20016;-78
2021/08/31 07:10:41;;;;;;;26.33;21.83;;;17.50;99.90;;;;;;5068041;28;20442;-79
2021/08/31 07:13:07;;;;;;;31.52;21.92;;;17.60;99.90;;;;;;5074860;28;20345;-78
2021/08/31 07:15:33;;;;;;;31.67;21.25;;;17.70;99.90;;;;;;5069361;28;20040;-77
2021/08/31 07:17:59;;;;;;;34.08;22.02;;;17.80;99.90;;;;;;5068825;28;20047;-78
2021/08/31 07:20:27;;;;;;;31.58;21.63;;;17.90;99.90;;;;;;5080472;28;20044;-79
2021/08/31 07:22:53;;;;;;;28.33;20.65;;;17.90;99.90;;;;;;5072663;28;20481;-78
2021/08/31 07:25:19;;;;;;;26.05;20.45;;;18.00;99.90;;;;;;5068981;28;20086;-78
2021/08/31 07:27:45;;;;;;;30.13;20.33;;;18.10;99.90;;;;;;5068988;28;20029;-77
2021/08/31 07:30:11;;;;;;;27.58;19.55;;;18.20;99.90;;;;;;5069133;28;20104;-78
2021/08/31 07:32:37;;;;;;;26.80;18.98;;;18.30;99.90;;;;;;5069038;28;20035;-79
2021/08/31 07:35:03;;;;;;;25.70;17.25;;;18.50;99.90;;;;;;5068929;28;20025;-77
2021/08/31 07:37:29;;;;;;;27.25;19.20;;;18.60;99.90;;;;;;5068993;28;20081;-78
2021/08/31 07:39:54;;;;;;;27.40;19.15;;;18.60;99.90;;;;;;5068068;28;20115;-78
2021/08/31 07:42:20;;;;;;;27.15;17.90;;;18.70;99.90;;;;;;5075652;28;20024;-77
2021/08/31 07:44:46;;;;;;;26.58;17.90;;;18.80;99.90;;;;;;5075151;28;20020;-77
2021/08/31 07:47:13;;;;;;;26.73;17.83;;;18.90;99.90;;;;;;5084662;28;20585;-77
2021/08/31 07:49:39;;;;;;;24.42;17.10;;;19.00;99.90;;;;;;5073327;28;20392;-77
2021/08/31 07:52:05;;;;;;;25.40;17.20;;;19.00;99.90;;;;;;5089175;28;20020;-77
2021/08/31 07:54:31;;;;;;;26.30;16.33;;;19.00;99.90;;;;;;5089243;28;20017;-80
2021/08/31 07:56:57;;;;;;;27.20;16.50;;;19.10;99.90;;;;;;5087938;28;20074;-77
2021/08/31 07:59:22;;;;;;;22.30;16.30;;;19.10;99.90;;;;;;5089599;28;20035;-75
2021/08/31 08:01:48;;;;;;;23.35;15.88;;;19.20;99.90;;;;;;5099678;28;20212;-76
2021/08/31 08:04:14;;;;;;;24.73;16.52;;;19.30;99.90;;;;;;5100032;28;20028;-76
2021/08/31 08:06:41;;;;;;;25.13;17.13;;;19.20;99.90;;;;;;5100186;28;20028;-76
2021/08/31 08:09:07;;;;;;;21.35;16.63;;;19.20;99.90;;;;;;5099937;28;20107;-75
2021/08/31 08:11:33;;;;;;;22.48;15.63;;;19.40;99.90;;;;;;5081992;28;20312;-75
2021/08/31 08:13:58;;;;;;;24.98;15.98;;;19.40;99.90;;;;;;5083765;28;20205;-81
2021/08/31 08:16:24;;;;;;;22.50;14.52;;;19.50;99.90;;;;;;5083603;28;20084;-80
2021/08/31 08:18:50;;;;;;;22.80;15.38;;;19.60;99.90;;;;;;5075391;28;20025;-77
2021/08/31 08:21:16;;;;;;;21.40;15.88;;;19.70;99.90;;;;;;5089616;28;20024;-76
2021/08/31 08:23:42;;;;;;;24.65;15.80;;;19.60;99.90;;;;;;5078900;28;20020;-77
2021/08/31 08:26:09;;;;;;;23.10;15.07;;;19.60;99.90;;;;;;5086592;28;20016;-77
2021/08/31 08:28:35;;;;;;;20.83;14.63;;;19.80;99.90;;;;;;5088064;28;20043;-77
2021/08/31 08:31:01;;;;;;;23.40;14.18;;;19.80;99.90;;;;;;5085360;28;20528;-76
2021/08/31 08:33:27;;;;;;;21.80;14.75;;;20.10;99.90;;;;;;5091859;28;20091;-81
2021/08/31 08:35:52;;;;;;;24.88;14.95;;;20.10;99.90;;;;;;5072131;28;20024;-77
2021/08/31 08:38:19;;;;;;;20.25;14.88;;;20.10;99.90;;;;;;5072256;28;20489;-76
2021/08/31 08:40:46;;;;;;;19.00;14.27;;;20.00;99.90;;;;;;5071610;28;20017;-76
2021/08/31 08:43:13;;;;;;;21.48;15.32;;;20.00;99.90;;;;;;5089072;28;20034;-77
2021/08/31 08:45:46;;;;;;;23.60;14.55;;;19.90;99.90;;;;;;5088654;28;20008;-77
2021/08/31 08:48:23;;;;;;;20.10;13.45;;;19.80;99.90;;;;;;5081504;28;20035;-77
2021/08/31 08:50:50;;;;;;;17.67;13.93;;;20.00;99.90;;;;;;5083137;28;20020;-77
2021/08/31 08:53:17;;;;;;;18.55;13.68;;;20.20;99.90;;;;;;5075746;28;20610;-76
2021/08/31 08:55:42;;;;;;;20.65;14.90;;;20.30;99.90;;;;;;5084747;28;20488;-78
2021/08/31 08:58:08;;;;;;;19.42;13.15;;;20.40;99.90;;;;;;5076906;28;20028;-76
2021/08/31 09:00:58;;;;;;;18.65;13.55;;;20.50;99.90;;;;;;5084531;28;20032;-77
2021/08/31 09:03:24;;;;;;;15.60;11.70;;;20.80;99.90;;;;;;5071826;28;20162;-78
2021/08/31 09:06:14;;;;;;;18.77;13.40;;;21.10;99.90;;;;;;5072145;28;20147;-81
2021/08/31 09:08:54;;;;;;;21.58;14.82;;;21.10;99.90;;;;;;5071826;28;20066;-77
2021/08/31 09:11:35;;;;;;;20.42;13.48;;;20.90;99.90;;;;;;5082150;28;20107;-77
2021/08/31 09:14:22;;;;;;;16.20;11.98;;;20.80;99.90;;;;;;5089597;28;20031;-77
2021/08/31 09:16:59;;;;;;;18.70;13.20;;;20.90;99.90;;;;;;5087725;28;20101;-78
2021/08/31 09:19:40;;;;;;;17.73;12.10;;;20.90;99.90;;;;;;5072488;28;20130;-77
2021/08/31 09:22:12;;;;;;;22.95;12.77;;;20.90;99.90;;;;;;5085070;28;20020;-77
2021/08/31 09:24:38;;;;;;;20.40;12.45;;;21.00;99.90;;;;;;5071098;28;20558;-77
2021/08/31 09:27:04;;;;;;;16.55;11.40;;;21.00;99.90;;;;;;5072846;28;20219;-77
2021/08/31 09:29:38;;;;;;;17.02;12.13;;;21.10;99.90;;;;;;5081879;28;20242;-76
2021/08/31 09:32:07;;;;;;;;;;;21.10;99.90;;;;;;5074163;28;20017;-77
2021/08/31 09:34:36;;;;;;;16.48;10.98;;;20.90;99.90;;;;;;5071712;28;19908;-77
2021/08/31 09:37:34;;;;;;;17.17;11.43;;;21.00;99.90;;;;;;5071001;28;20104;-77
2021/08/31 09:40:20;;;;;;;16.33;10.75;;;21.10;99.90;;;;;;5071231;28;20086;-77
2021/08/31 09:43:04;;;;;;;15.77;11.32;;;21.40;99.90;;;;;;5070209;28;20020;-77
2021/08/31 09:45:35;;;;;;;20.17;11.02;;;21.40;99.90;;;;;;5072104;28;20020;-77
2021/08/31 09:48:04;;;;;;;16.40;10.88;;;21.20;99.90;;;;;;5074437;28;20270;-76
2021/08/31 09:50:42;;;;;;;16.80;11.02;;;21.30;99.90;;;;;;5080239;28;20039;-79
2021/08/31 09:53:13;;;;;;;15.18;10.77;;;21.50;99.90;;;;;;5077002;28;20016;-75
2021/08/31 09:55:40;;;;;;;21.02;11.10;;;21.50;99.90;;;;;;5074258;28;20031;-76
2021/08/31 09:58:25;;;;;;;15.95;10.52;;;21.50;99.90;;;;;;5088189;28;20028;-76
2021/08/31 10:00:53;;;;;;;14.48;9.48;;;21.60;99.90;;;;;;5070566;28;20017;-77
2021/08/31 10:03:20;;;;;;;13.48;10.70;;;21.70;99.90;;;;;;5070503;28;20472;-77
2021/08/31 10:05:48;;;;;;;18.83;10.65;;;21.80;99.90;;;;;;5071614;28;20457;-77
2021/08/31 10:08:16;;;;;;;14.40;10.15;;;21.90;99.90;;;;;;5070341;28;20025;-76
2021/08/31 10:10:46;;;;;;;16.58;9.80;;;21.80;99.90;;;;;;5070373;28;20020;-76
2021/08/31 10:13:17;;;;;;;29.20;13.77;;;22.00;99.90;;;;;;5070492;28;20036;-77
2021/08/31 10:15:48;;;;;;;19.83;10.52;;;22.00;99.90;;;;;;5070403;28;20078;-76
2021/08/31 10:18:15;;;;;;;17.17;10.27;;;22.20;99.90;;;;;;5069935;28;20049;-77
2021/08/31 10:20:49;;;;;;;13.65;8.45;;;22.30;99.90;;;;;;5069744;28;20028;-76
2021/08/31 10:23:17;;;;;;;14.40;9.20;;;22.70;99.90;;;;;;5070595;28;20012;-77
2021/08/31 10:25:43;;;;;;;14.40;9.38;;;22.90;99.90;;;;;;5069838;28;20035;-77
2021/08/31 10:28:38;;;;;;;16.45;9.50;;;22.90;99.90;;;;;;5069625;28;20021;-76
2021/08/31 10:31:03;;;;;;;;;;;23.10;99.90;;;;;;5064730;28;20098;-77
2021/08/31 10:33:35;;;;;;;12.70;8.48;;;23.20;99.90;;;;;;5070361;28;19904;-76
2021/08/31 10:36:05;;;;;;;16.00;8.68;;;23.20;99.90;;;;;;5067829;28;20393;-77
2021/08/31 10:38:44;;;;;;;16.35;8.57;;;23.30;99.90;;;;;;5069617;28;20033;-77
2021/08/31 10:41:44;;;;;;;12.13;8.57;;;23.20;99.90;;;;;;5056323;28;20100;-77
2021/08/31 10:44:33;;;;;;;13.85;7.72;;;23.10;99.90;;;;;;5063721;28;20039;-77
2021/08/31 10:47:03;;;;;;;13.75;7.85;;;23.20;99.90;;;;;;5069729;28;20035;-77
2021/08/31 10:49:29;;;;;;;14.23;8.60;;;23.10;99.90;;;;;;5062055;28;20419;-76
2021/08/31 10:52:09;;;;;;;15.23;8.32;;;23.00;99.90;;;;;;5090062;28;20016;-81
2021/08/31 10:54:48;;;;;;;12.30;9.00;;;22.80;99.90;;;;;;5075644;28;20477;-81
2021/08/31 10:57:36;;;;;;;12.02;7.35;;;22.80;99.90;;;;;;5077985;28;20031;-80
2021/08/31 11:00:14;;;;;;;11.02;6.88;;;23.00;99.90;;;;;;5086753;28;20032;-81
2021/08/31 11:02:48;;;;;;;13.32;7.30;;;23.20;99.90;;;;;;5080669;28;20023;-82
2021/08/31 11:05:20;;;;;;;9.88;7.18;;;23.30;99.90;;;;;;5087854;28;20118;-81
2021/08/31 11:07:47;;;;;;;12.55;6.55;;;23.50;99.90;;;;;;5086111;28;20016;-82
2021/08/31 11:10:21;;;;;;;11.57;7.55;;;23.80;99.90;;;;;;5068600;28;20020;-81
2021/08/31 11:12:47;;;;;;;14.10;7.55;;;23.90;99.90;;;;;;5071716;28;20021;-81
2021/08/31 11:15:24;;;;;;;13.80;6.72;;;23.90;99.90;;;;;;5073072;28;20020;-81
2021/08/31 11:17:51;;;;;;;14.82;7.43;;;24.00;99.90;;;;;;5066788;28;20044;-80
2021/08/31 11:20:19;;;;;;;11.50;6.45;;;24.00;99.90;;;;;;5067219;28;20021;-80
2021/08/31 11:22:49;;;;;;;11.48;7.32;;;23.90;99.90;;;;;;5061059;28;20487;-80
2021/08/31 11:25:15;;;;;;;11.95;7.00;;;24.00;99.90;;;;;;5058562;28;20021;-81
2021/08/31 11:27:53;;;;;;;12.80;6.60;;;24.10;99.90;;;;;;5069470;28;20480;-80
2021/08/31 11:30:19;;;;;;;10.88;7.00;;;24.20;99.50;;;;;;5069754;28;20026;-81
2021/08/31 11:32:45;;;;;;;11.30;6.60;;;24.30;99.40;;;;;;5069718;28;20154;-81
2021/08/31 11:35:11;;;;;;;13.32;6.82;;;24.30;99.20;;;;;;5069887;28;20035;-81
2021/08/31 11:37:50;;;;;;;11.18;6.60;;;24.40;98.70;;;;;;5069747;28;20560;-80
2021/08/31 11:40:25;;;;;;;9.10;6.20;;;24.50;98.30;;;;;;5069770;28;20111;-81
2021/08/31 11:42:57;;;;;;;9.00;6.13;;;24.70;98.60;;;;;;5069948;28;20029;-81
2021/08/31 11:45:40;;;;;;;10.80;6.32;;;25.00;98.60;;;;;;5069401;28;20021;-80
2021/08/31 11:48:07;;;;;;;9.60;6.07;;;25.30;98.00;;;;;;5072893;28;20044;-81
2021/08/31 11:50:33;;;;;;;6.13;5.50;;;25.40;97.50;;;;;;5073142;28;20111;-81
2021/08/31 11:53:19;;;;;;;9.73;5.47;;;25.60;97.00;;;;;;5072409;28;20029;-81
2021/08/31 11:55:56;;;;;;;8.20;6.03;;;25.90;96.40;;;;;;5073119;28;20020;-81
2021/08/31 11:58:23;;;;;;;11.57;6.10;;;25.80;96.10;;;;;;5073431;28;20028;-81
2021/08/31 12:00:49;;;;;;;11.50;6.22;;;26.00;96.10;;;;;;5073371;28;20507;-81
2021/08/31 12:03:27;;;;;;;8.60;5.75;;;25.90;95.80;;;;;;5073906;28;20103;-81
2021/08/31 12:06:04;;;;;;;10.18;6.00;;;25.80;95.80;;;;;;5104554;28;20020;-80
2021/08/31 12:08:36;;;;;;;8.88;5.22;;;25.70;95.20;;;;;;5073546;28;20021;-80
2021/08/31 12:11:02;;;;;;;11.25;6.07;;;25.80;95.20;;;;;;5073313;28;20017;-80
2021/08/31 12:13:28;;;;;;;10.55;5.90;;;26.00;94.70;;;;;;5073478;28;20025;-81
2021/08/31 12:15:58;;;;;;;9.82;5.45;;;25.90;94.00;;;;;;5072934;28;20028;-81
2021/08/31 12:18:26;;;;;;;6.50;5.45;;;25.80;94.80;;;;;;5072714;28;20056;-80
2021/08/31 12:20:53;;;;;;;9.93;5.30;;;25.90;94.30;;;;;;5073310;28;20021;-81
2021/08/31 12:23:30;;;;;;;7.18;5.53;;;26.10;94.10;;;;;;5072752;28;20036;-81
2021/08/31 12:25:56;;;;;;;7.10;5.03;;;26.20;93.50;;;;;;5072695;28;20366;-81
2021/08/31 12:28:22;;;;;;;13.20;5.65;;;26.10;93.50;;;;;;5072540;28;20099;-81
2021/08/31 12:30:51;;;;;;;17.77;8.13;;;26.30;93.40;;;;;;5072902;28;20599;-80
2021/08/31 12:33:25;;;;;;;13.63;5.47;;;26.30;93.40;;;;;;5072766;28;20008;-81
2021/08/31 12:36:12;;;;;;;;;;;26.30;92.90;;;;;;5071933;28;20524;-81
2021/08/31 12:38:40;;;;;;;10.85;5.22;;;26.40;92.90;;;;;;5072606;28;19954;-81